sensor_id;sensor_type;location;lat;lon;timestamp;pressure;altitude;pressure_sealevel;temperature;humidity
69035;BME280;56091;55.756;37.412;2022-10-16T00:01:45;100199.44;;;4.67;66.18
69035;BME280;56091;55.756;37.412;2022-10-16T00:06:47;100207.66;;;4.66;66.30
69035;BME280;56091;55.756;37.412;2022-10-16T00:11:48;100211.72;;;4.62;66.38
69035;BME280;56091;55.756;37.412;2022-10-16T00:16:49;100210.84;;;4.55;66.66
69035;BME280;56091;55.756;37.412;2022-10-16T00:21:50;100218.66;;;4.56;66.65
69035;BME280;56091;55.756;37.412;2022-10-16T00:27:10;100221.09;;;4.51;66.79
69035;BME280;56091;55.756;37.412;2022-10-16T00:32:11;100211.53;;;4.42;67.02
69035;BME280;56091;55.756;37.412;2022-10-16T00:37:12;100232.28;;;4.40;67.16
69035;BME280;56091;55.756;37.412;2022-10-16T00:42:16;100227.91;;;4.32;67.50
69035;BME280;56091;55.756;37.412;2022-10-16T00:47:26;100216.13;;;4.26;67.29
69035;BME280;56091;55.756;37.412;2022-10-16T00:52:28;100226.63;;;4.28;67.31
69035;BME280;56091;55.756;37.412;2022-10-16T00:57:29;100223.97;;;4.28;67.27
69035;BME280;56091;55.756;37.412;2022-10-16T01:02:31;100235.69;;;4.27;67.39
69035;BME280;56091;55.756;37.412;2022-10-16T01:23:28;100250.53;;;4.15;67.76
69035;BME280;56091;55.756;37.412;2022-10-16T01:28:47;100245.78;;;4.10;68.09
69035;BME280;56091;55.756;37.412;2022-10-16T01:39:06;100238.63;;;3.96;68.43
69035;BME280;56091;55.756;37.412;2022-10-16T01:44:32;100240.34;;;4.03;68.40
69035;BME280;56091;55.756;37.412;2022-10-16T01:49:36;100246.94;;;4.07;68.13
69035;BME280;56091;55.756;37.412;2022-10-16T01:54:41;100244.91;;;4.09;68.10
69035;BME280;56091;55.756;37.412;2022-10-16T01:59:46;100260.94;;;4.09;68.06
69035;BME280;56091;55.756;37.412;2022-10-16T02:05:03;100258.03;;;4.04;68.06
69035;BME280;56091;55.756;37.412;2022-10-16T02:10:06;100258.41;;;4.01;68.13
69035;BME280;56091;55.756;37.412;2022-10-16T02:15:09;100166.31;;;3.39;68.19
69035;BME280;56091;55.756;37.412;2022-10-16T02:20:12;100254.63;;;3.96;68.24
69035;BME280;56091;55.756;37.412;2022-10-16T02:25:23;100259.25;;;3.87;68.43
69035;BME280;56091;55.756;37.412;2022-10-16T02:30:30;100265.97;;;3.83;68.57
69035;BME280;56091;55.756;37.412;2022-10-16T02:35:33;100270.50;;;3.82;68.57
69035;BME280;56091;55.756;37.412;2022-10-16T02:40:35;100269.66;;;3.82;68.62
69035;BME280;56091;55.756;37.412;2022-10-16T02:45:36;100277.03;;;3.80;68.71
69035;BME280;56091;55.756;37.412;2022-10-16T02:50:37;100269.50;;;3.68;69.14
69035;BME280;56091;55.756;37.412;2022-10-16T02:55:40;100251.66;;;3.54;69.23
69035;BME280;56091;55.756;37.412;2022-10-16T03:00:41;100275.03;;;3.67;69.16
69035;BME280;56091;55.756;37.412;2022-10-16T03:05:43;100283.78;;;3.61;69.25
69035;BME280;56091;55.756;37.412;2022-10-16T03:10:46;100286.63;;;3.59;69.49
69035;BME280;56091;55.756;37.412;2022-10-16T03:15:48;100289.47;;;3.58;69.42
69035;BME280;56091;55.756;37.412;2022-10-16T03:20:50;100262.72;;;3.36;69.78
69035;BME280;56091;55.756;37.412;2022-10-16T03:25:50;100265.72;;;3.33;69.61
69035;BME280;56091;55.756;37.412;2022-10-16T03:30:51;100291.38;;;3.49;69.92
69035;BME280;56091;55.756;37.412;2022-10-16T03:35:53;100294.97;;;3.41;69.97
69035;BME280;56091;55.756;37.412;2022-10-16T03:40:54;100277.03;;;3.35;69.87
69035;BME280;56091;55.756;37.412;2022-10-16T03:45:55;100275.75;;;3.31;69.88
69035;BME280;56091;55.756;37.412;2022-10-16T03:50:56;100287.19;;;3.40;69.67
69035;BME280;56091;55.756;37.412;2022-10-16T03:55:57;100299.66;;;3.39;69.61
69035;BME280;56091;55.756;37.412;2022-10-16T04:01:00;100297.84;;;3.40;69.89
69035;BME280;56091;55.756;37.412;2022-10-16T04:06:01;100305.56;;;3.35;70.12
69035;BME280;56091;55.756;37.412;2022-10-16T04:11:02;100302.06;;;3.34;70.21
69035;BME280;56091;55.756;37.412;2022-10-16T04:16:03;100306.31;;;3.28;70.29
69035;BME280;56091;55.756;37.412;2022-10-16T04:21:05;100295.81;;;3.27;70.20
69035;BME280;56091;55.756;37.412;2022-10-16T04:26:06;100308.06;;;3.36;70.06
69035;BME280;56091;55.756;37.412;2022-10-16T04:31:07;100316.59;;;3.31;70.02
69035;BME280;56091;55.756;37.412;2022-10-16T04:36:08;100303.19;;;3.40;69.78
69035;BME280;56091;55.756;37.412;2022-10-16T04:41:09;100315.31;;;3.42;69.65
69035;BME280;56091;55.756;37.412;2022-10-16T04:46:10;100320.94;;;3.47;69.57
69035;BME280;56091;55.756;37.412;2022-10-16T04:51:11;100322.88;;;3.68;70.44
69035;BME280;56091;55.756;37.412;2022-10-16T04:56:12;100310.06;;;3.64;68.39
69035;BME280;56091;55.756;37.412;2022-10-16T05:01:15;100307.31;;;3.57;68.62
69035;BME280;56091;55.756;37.412;2022-10-16T05:06:15;100339.13;;;3.74;68.32
69035;BME280;56091;55.756;37.412;2022-10-16T05:11:16;100324.69;;;3.83;68.12
69035;BME280;56091;55.756;37.412;2022-10-16T05:16:17;100322.41;;;3.95;67.53
69035;BME280;56091;55.756;37.412;2022-10-16T05:21:18;100318.88;;;3.94;67.26
69035;BME280;56091;55.756;37.412;2022-10-16T05:26:19;100331.13;;;4.03;67.03
69035;BME280;56091;55.756;37.412;2022-10-16T05:31:20;100331.00;;;4.11;66.66
69035;BME280;56091;55.756;37.412;2022-10-16T05:36:20;100329.88;;;4.21;66.41
69035;BME280;56091;55.756;37.412;2022-10-16T05:41:21;100335.97;;;4.29;66.29
69035;BME280;56091;55.756;37.412;2022-10-16T05:46:23;100340.34;;;4.37;66.02
69035;BME280;56091;55.756;37.412;2022-10-16T05:51:24;100339.59;;;4.43;65.70
69035;BME280;56091;55.756;37.412;2022-10-16T05:56:25;100317.63;;;4.26;65.70
69035;BME280;56091;55.756;37.412;2022-10-16T06:01:26;100346.03;;;4.49;65.50
69035;BME280;56091;55.756;37.412;2022-10-16T06:06:28;100330.59;;;4.66;64.79
69035;BME280;56091;55.756;37.412;2022-10-16T06:11:33;100354.13;;;4.77;64.55
69035;BME280;56091;55.756;37.412;2022-10-16T06:16:35;100336.84;;;4.73;64.62
69035;BME280;56091;55.756;37.412;2022-10-16T06:21:36;100345.28;;;4.98;64.38
69035;BME280;56091;55.756;37.412;2022-10-16T06:26:37;100350.66;;;5.26;63.50
69035;BME280;56091;55.756;37.412;2022-10-16T06:31:39;100337.13;;;5.35;62.70
69035;BME280;56091;55.756;37.412;2022-10-16T06:36:40;100351.09;;;5.58;62.36
69035;BME280;56091;55.756;37.412;2022-10-16T06:41:41;100367.50;;;5.77;62.00
69035;BME280;56091;55.756;37.412;2022-10-16T06:46:49;100359.28;;;5.85;61.65
69035;BME280;56091;55.756;37.412;2022-10-16T06:51:50;100361.50;;;6.10;61.25
69035;BME280;56091;55.756;37.412;2022-10-16T06:56:51;100350.19;;;6.14;60.70
69035;BME280;56091;55.756;37.412;2022-10-16T07:01:55;100364.69;;;6.33;60.30
69035;BME280;56091;55.756;37.412;2022-10-16T07:06:56;100364.13;;;6.44;59.99
69035;BME280;56091;55.756;37.412;2022-10-16T07:11:57;100368.03;;;6.49;59.77
69035;BME280;56091;55.756;37.412;2022-10-16T07:16:57;100373.44;;;6.55;59.62
69035;BME280;56091;55.756;37.412;2022-10-16T07:22:03;100379.25;;;6.72;59.29
69035;BME280;56091;55.756;37.412;2022-10-16T07:27:05;100375.59;;;6.93;58.85
69035;BME280;56091;55.756;37.412;2022-10-16T07:32:06;100375.19;;;7.16;58.25
69035;BME280;56091;55.756;37.412;2022-10-16T07:37:07;100382.63;;;7.14;58.51
69035;BME280;56091;55.756;37.412;2022-10-16T07:42:08;100378.72;;;7.23;58.33
69035;BME280;56091;55.756;37.412;2022-10-16T07:47:09;100360.72;;;7.11;58.32
69035;BME280;56091;55.756;37.412;2022-10-16T07:52:10;100380.34;;;7.31;57.81
69035;BME280;56091;55.756;37.412;2022-10-16T07:57:10;100382.63;;;7.54;57.52
69035;BME280;56091;55.756;37.412;2022-10-16T08:02:12;100367.13;;;7.56;57.10
69035;BME280;56091;55.756;37.412;2022-10-16T08:07:13;100341.72;;;7.52;56.45
69035;BME280;56091;55.756;37.412;2022-10-16T08:12:14;100386.28;;;7.93;55.81
69035;BME280;56091;55.756;37.412;2022-10-16T08:17:17;100381.03;;;8.12;55.48
69035;BME280;56091;55.756;37.412;2022-10-16T08:22:23;100386.63;;;8.17;55.08
69035;BME280;56091;55.756;37.412;2022-10-16T08:27:24;100382.88;;;8.25;54.97
69035;BME280;56091;55.756;37.412;2022-10-16T08:32:25;100377.44;;;8.38;54.82
69035;BME280;56091;55.756;37.412;2022-10-16T08:37:32;100376.16;;;8.54;54.35
69035;BME280;56091;55.756;37.412;2022-10-16T08:53:07;100372.63;;;8.92;52.77
69035;BME280;56091;55.756;37.412;2022-10-16T08:58:16;100367.78;;;9.01;52.39
69035;BME280;56091;55.756;37.412;2022-10-16T09:03:22;100368.75;;;9.13;52.07
69035;BME280;56091;55.756;37.412;2022-10-16T09:08:34;100366.59;;;9.22;51.63
69035;BME280;56091;55.756;37.412;2022-10-16T09:24:15;100363.72;;;9.67;49.73
69035;BME280;56091;55.756;37.412;2022-10-16T09:29:19;100350.56;;;9.77;49.31
69035;BME280;56091;55.756;37.412;2022-10-16T09:34:35;100363.59;;;9.99;48.74
69035;BME280;56091;55.756;37.412;2022-10-16T09:39:53;100369.38;;;10.02;47.72
69035;BME280;56091;55.756;37.412;2022-10-16T09:44:55;100371.38;;;10.07;47.67
69035;BME280;56091;55.756;37.412;2022-10-16T09:50:05;100348.56;;;10.09;47.58
69035;BME280;56091;55.756;37.412;2022-10-16T09:55:19;100354.16;;;10.26;47.41
69035;BME280;56091;55.756;37.412;2022-10-16T10:00:22;100347.28;;;10.30;47.10
69035;BME280;56091;55.756;37.412;2022-10-16T10:05:26;100336.09;;;10.45;47.00
69035;BME280;56091;55.756;37.412;2022-10-16T10:10:30;100333.53;;;10.50;46.80
69035;BME280;56091;55.756;37.412;2022-10-16T10:15:34;100341.41;;;10.52;46.38
69035;BME280;56091;55.756;37.412;2022-10-16T10:20:37;100353.69;;;10.48;46.41
69035;BME280;56091;55.756;37.412;2022-10-16T10:30:56;100331.38;;;10.71;46.70
69035;BME280;56091;55.756;37.412;2022-10-16T10:46:37;100338.78;;;10.75;46.66
69035;BME280;56091;55.756;37.412;2022-10-16T10:57:04;100296.53;;;10.69;46.60
69035;BME280;56091;55.756;37.412;2022-10-16T11:07:30;100323.31;;;10.94;46.56
69035;BME280;56091;55.756;37.412;2022-10-16T11:12:38;100330.25;;;10.90;46.72
69035;BME280;56091;55.756;37.412;2022-10-16T11:18:19;100292.00;;;10.82;46.50
69035;BME280;56091;55.756;37.412;2022-10-16T11:23:26;100314.91;;;11.03;46.44
69035;BME280;56091;55.756;37.412;2022-10-16T11:28:41;100311.97;;;11.04;46.24
69035;BME280;56091;55.756;37.412;2022-10-16T11:34:23;100318.34;;;11.10;45.88
69035;BME280;56091;55.756;37.412;2022-10-16T11:39:26;100312.56;;;11.06;46.10
69035;BME280;56091;55.756;37.412;2022-10-16T11:49:50;100307.03;;;11.25;45.75
69035;BME280;56091;55.756;37.412;2022-10-16T11:54:57;100327.47;;;11.21;45.31
69035;BME280;56091;55.756;37.412;2022-10-16T12:00:19;100296.81;;;11.03;45.33
69035;BME280;56091;55.756;37.412;2022-10-16T12:05:35;100332.06;;;11.20;44.99
69035;BME280;56091;55.756;37.412;2022-10-16T12:10:47;100273.09;;;10.93;45.09
69035;BME280;56091;55.756;37.412;2022-10-16T12:15:48;100277.47;;;11.06;45.18
69035;BME280;56091;55.756;37.412;2022-10-16T12:20:59;100293.31;;;11.14;45.12
69035;BME280;56091;55.756;37.412;2022-10-16T12:26:05;100285.56;;;11.30;45.12
69035;BME280;56091;55.756;37.412;2022-10-16T12:31:08;100283.44;;;11.32;45.30
69035;BME280;56091;55.756;37.412;2022-10-16T12:36:30;100286.03;;;11.39;44.88
69035;BME280;56091;55.756;37.412;2022-10-16T12:41:35;100297.19;;;11.30;45.16
69035;BME280;56091;55.756;37.412;2022-10-16T12:46:40;100278.06;;;11.08;45.27
69035;BME280;56091;55.756;37.412;2022-10-16T12:51:42;100286.50;;;11.24;45.29
69035;BME280;56091;55.756;37.412;2022-10-16T13:07:32;100274.63;;;11.25;45.36
69035;BME280;56091;55.756;37.412;2022-10-16T13:13:09;100289.22;;;11.12;45.57
69035;BME280;56091;55.756;37.412;2022-10-16T13:23:48;100287.09;;;11.14;46.06
69035;BME280;56091;55.756;37.412;2022-10-16T13:28:52;100273.69;;;11.07;46.29
69035;BME280;56091;55.756;37.412;2022-10-16T13:33:55;100280.41;;;11.05;46.51
69035;BME280;56091;55.756;37.412;2022-10-16T13:39:20;100271.84;;;11.08;46.44
69035;BME280;56091;55.756;37.412;2022-10-16T13:44:21;100283.56;;;11.02;46.64
69035;BME280;56091;55.756;37.412;2022-10-16T13:49:22;100282.38;;;10.98;46.71
69035;BME280;56091;55.756;37.412;2022-10-16T13:54:24;100279.44;;;10.87;46.70
69035;BME280;56091;55.756;37.412;2022-10-16T13:59:34;100277.19;;;10.72;47.38
69035;BME280;56091;55.756;37.412;2022-10-16T14:04:38;100241.41;;;10.35;47.79
69035;BME280;56091;55.756;37.412;2022-10-16T14:09:39;100281.22;;;10.51;47.94
69035;BME280;56091;55.756;37.412;2022-10-16T14:14:43;100256.41;;;10.31;48.18
69035;BME280;56091;55.756;37.412;2022-10-16T14:19:48;100283.81;;;10.28;48.82
69035;BME280;56091;55.756;37.412;2022-10-16T14:24:50;100270.59;;;10.08;49.21
69035;BME280;56091;55.756;37.412;2022-10-16T14:30:08;100267.59;;;9.97;49.61
69035;BME280;56091;55.756;37.412;2022-10-16T14:35:38;100263.94;;;9.92;49.89
69035;BME280;56091;55.756;37.412;2022-10-16T14:40:47;100269.88;;;9.82;50.10
69035;BME280;56091;55.756;37.412;2022-10-16T14:45:55;100273.03;;;9.79;50.60
69035;BME280;56091;55.756;37.412;2022-10-16T14:50:57;100264.13;;;9.60;50.65
69035;BME280;56091;55.756;37.412;2022-10-16T14:56:43;100281.50;;;9.64;51.00
69035;BME280;56091;55.756;37.412;2022-10-16T15:01:46;100274.53;;;9.56;51.03
69035;BME280;56091;55.756;37.412;2022-10-16T15:06:47;100279.00;;;9.44;51.33
69035;BME280;56091;55.756;37.412;2022-10-16T15:11:48;100294.72;;;9.47;51.60
69035;BME280;56091;55.756;37.412;2022-10-16T15:16:49;100287.53;;;9.41;51.87
69035;BME280;56091;55.756;37.412;2022-10-16T15:21:50;100267.75;;;9.29;51.97
69035;BME280;56091;55.756;37.412;2022-10-16T15:26:51;100275.66;;;9.24;52.06
69035;BME280;56091;55.756;37.412;2022-10-16T15:31:52;100277.31;;;9.25;52.29
69035;BME280;56091;55.756;37.412;2022-10-16T15:36:52;100270.75;;;9.21;52.33
69035;BME280;56091;55.756;37.412;2022-10-16T15:41:55;100289.00;;;9.18;52.35
69035;BME280;56091;55.756;37.412;2022-10-16T15:46:56;100273.94;;;9.11;52.74
69035;BME280;56091;55.756;37.412;2022-10-16T15:51:57;100256.44;;;9.02;52.79
69035;BME280;56091;55.756;37.412;2022-10-16T15:56:58;100264.53;;;8.95;53.43
69035;BME280;56091;55.756;37.412;2022-10-16T16:01:58;100267.84;;;8.97;53.04
69035;BME280;56091;55.756;37.412;2022-10-16T16:07:00;100269.91;;;8.95;53.35
69035;BME280;56091;55.756;37.412;2022-10-16T16:12:01;100264.81;;;8.87;53.31
69035;BME280;56091;55.756;37.412;2022-10-16T16:17:02;100278.28;;;8.87;53.16
69035;BME280;56091;55.756;37.412;2022-10-16T16:22:04;100256.09;;;8.66;53.74
69035;BME280;56091;55.756;37.412;2022-10-16T16:27:04;100275.09;;;8.71;53.45
69035;BME280;56091;55.756;37.412;2022-10-16T16:32:05;100272.81;;;8.68;53.65
69035;BME280;56091;55.756;37.412;2022-10-16T16:37:06;100279.28;;;8.60;53.91
69035;BME280;56091;55.756;37.412;2022-10-16T16:42:07;100272.75;;;8.50;53.84
69035;BME280;56091;55.756;37.412;2022-10-16T16:47:09;100288.25;;;8.48;54.17
69035;BME280;56091;55.756;37.412;2022-10-16T16:52:09;100266.34;;;8.44;54.38
69035;BME280;56091;55.756;37.412;2022-10-16T16:57:10;100261.63;;;8.39;54.56
69035;BME280;56091;55.756;37.412;2022-10-16T17:02:11;100252.22;;;8.24;54.54
69035;BME280;56091;55.756;37.412;2022-10-16T17:07:12;100272.84;;;8.30;54.72
69035;BME280;56091;55.756;37.412;2022-10-16T17:12:12;100274.53;;;8.24;54.58
69035;BME280;56091;55.756;37.412;2022-10-16T17:17:13;100286.16;;;8.18;54.89
69035;BME280;56091;55.756;37.412;2022-10-16T17:22:14;100271.69;;;8.12;54.88
69035;BME280;56091;55.756;37.412;2022-10-16T17:27:15;100267.00;;;7.94;55.08
69035;BME280;56091;55.756;37.412;2022-10-16T17:32:16;100277.94;;;7.99;55.37
69035;BME280;56091;55.756;37.412;2022-10-16T17:37:17;100270.97;;;7.92;55.52
69035;BME280;56091;55.756;37.412;2022-10-16T17:42:18;100276.94;;;7.94;55.93
69035;BME280;56091;55.756;37.412;2022-10-16T17:47:19;100273.84;;;7.90;55.98
69035;BME280;56091;55.756;37.412;2022-10-16T17:52:20;100272.03;;;7.84;56.19
69035;BME280;56091;55.756;37.412;2022-10-16T17:57:21;100258.41;;;7.79;56.30
69035;BME280;56091;55.756;37.412;2022-10-16T18:02:22;100266.09;;;7.69;56.56
69035;BME280;56091;55.756;37.412;2022-10-16T18:07:23;100274.56;;;7.66;56.62
69035;BME280;56091;55.756;37.412;2022-10-16T18:12:24;100284.69;;;7.57;57.14
69035;BME280;56091;55.756;37.412;2022-10-16T18:17:24;100287.22;;;7.52;57.39
69035;BME280;56091;55.756;37.412;2022-10-16T18:22:25;100261.00;;;7.34;57.32
69035;BME280;56091;55.756;37.412;2022-10-16T18:27:26;100291.34;;;7.41;57.33
69035;BME280;56091;55.756;37.412;2022-10-16T18:32:27;100285.78;;;7.36;57.65
69035;BME280;56091;55.756;37.412;2022-10-16T18:37:28;100269.91;;;7.28;57.43
69035;BME280;56091;55.756;37.412;2022-10-16T18:42:32;100278.78;;;7.35;57.44
69035;BME280;56091;55.756;37.412;2022-10-16T18:47:33;100292.59;;;7.32;57.70
69035;BME280;56091;55.756;37.412;2022-10-16T18:52:34;100276.69;;;7.30;57.61
69035;BME280;56091;55.756;37.412;2022-10-16T18:57:35;100276.50;;;7.18;57.81
69035;BME280;56091;55.756;37.412;2022-10-16T19:02:35;100267.84;;;7.23;57.52
69035;BME280;56091;55.756;37.412;2022-10-16T19:07:39;100266.84;;;7.17;57.83
69035;BME280;56091;55.756;37.412;2022-10-16T19:12:40;100225.97;;;6.95;57.50
69035;BME280;56091;55.756;37.412;2022-10-16T19:17:41;100257.31;;;7.15;57.72
69035;BME280;56091;55.756;37.412;2022-10-16T19:22:42;100262.72;;;7.08;57.68
69035;BME280;56091;55.756;37.412;2022-10-16T19:27:56;100238.97;;;6.92;58.00
69035;BME280;56091;55.756;37.412;2022-10-16T19:32:56;100253.84;;;7.01;57.99
69035;BME280;56091;55.756;37.412;2022-10-16T19:37:58;100247.03;;;6.98;57.90
69035;BME280;56091;55.756;37.412;2022-10-16T19:42:58;100250.13;;;6.95;57.76
69035;BME280;56091;55.756;37.412;2022-10-16T19:47:59;100250.53;;;6.92;58.11
69035;BME280;56091;55.756;37.412;2022-10-16T19:53:00;100250.75;;;6.91;58.05
69035;BME280;56091;55.756;37.412;2022-10-16T19:58:01;100264.56;;;6.81;58.02
69035;BME280;56091;55.756;37.412;2022-10-16T20:03:02;100276.34;;;6.80;58.18
69035;BME280;56091;55.756;37.412;2022-10-16T20:08:03;100255.06;;;6.78;58.09
69035;BME280;56091;55.756;37.412;2022-10-16T20:13:04;100271.16;;;6.78;58.11
69035;BME280;56091;55.756;37.412;2022-10-16T20:18:04;100251.97;;;6.75;58.06
69035;BME280;56091;55.756;37.412;2022-10-16T20:23:05;100250.94;;;6.69;58.03
69035;BME280;56091;55.756;37.412;2022-10-16T20:28:08;100240.66;;;6.66;58.18
69035;BME280;56091;55.756;37.412;2022-10-16T20:33:10;100236.09;;;6.60;58.34
69035;BME280;56091;55.756;37.412;2022-10-16T20:38:12;100245.38;;;6.57;58.63
69035;BME280;56091;55.756;37.412;2022-10-16T20:43:15;100244.34;;;6.52;58.58
69035;BME280;56091;55.756;37.412;2022-10-16T20:48:16;100180.59;;;6.14;58.90
69035;BME280;56091;55.756;37.412;2022-10-16T20:53:17;100230.53;;;6.41;58.71
69035;BME280;56091;55.756;37.412;2022-10-16T20:58:17;100231.53;;;6.40;58.82
69035;BME280;56091;55.756;37.412;2022-10-16T21:03:18;100229.69;;;6.34;59.08
69035;BME280;56091;55.756;37.412;2022-10-16T21:08:19;100239.16;;;6.30;59.36
69035;BME280;56091;55.756;37.412;2022-10-16T21:13:20;100230.91;;;6.25;59.49
69035;BME280;56091;55.756;37.412;2022-10-16T21:18:20;100230.69;;;6.20;59.80
69035;BME280;56091;55.756;37.412;2022-10-16T21:23:22;100224.06;;;6.16;59.68
69035;BME280;56091;55.756;37.412;2022-10-16T21:28:23;100215.03;;;6.17;59.66
69035;BME280;56091;55.756;37.412;2022-10-16T21:33:24;100218.31;;;6.19;59.95
69035;BME280;56091;55.756;37.412;2022-10-16T21:38:28;100225.75;;;6.17;59.69
69035;BME280;56091;55.756;37.412;2022-10-16T21:43:29;100231.72;;;6.19;59.81
69035;BME280;56091;55.756;37.412;2022-10-16T21:48:29;100228.19;;;6.18;59.74
69035;BME280;56091;55.756;37.412;2022-10-16T21:53:30;100216.63;;;6.04;59.98
69035;BME280;56091;55.756;37.412;2022-10-16T21:58:31;100225.69;;;5.97;60.21
69035;BME280;56091;55.756;37.412;2022-10-16T22:03:32;100228.56;;;5.95;60.63
69035;BME280;56091;55.756;37.412;2022-10-16T22:08:34;100202.13;;;5.79;61.04
69035;BME280;56091;55.756;37.412;2022-10-16T22:13:36;100220.69;;;5.87;60.82
69035;BME280;56091;55.756;37.412;2022-10-16T22:18:38;100221.50;;;5.81;60.90
69035;BME280;56091;55.756;37.412;2022-10-16T22:23:39;100225.59;;;5.77;61.05
69035;BME280;56091;55.756;37.412;2022-10-16T22:28:40;100210.72;;;5.67;61.21
69035;BME280;56091;55.756;37.412;2022-10-16T22:33:41;100209.06;;;5.66;61.54
69035;BME280;56091;55.756;37.412;2022-10-16T22:38:42;100217.91;;;5.67;61.29
69035;BME280;56091;55.756;37.412;2022-10-16T22:43:45;100216.09;;;5.67;61.26
69035;BME280;56091;55.756;37.412;2022-10-16T22:48:47;100216.91;;;5.68;61.25
69035;BME280;56091;55.756;37.412;2022-10-16T22:53:48;100221.44;;;5.67;61.20
69035;BME280;56091;55.756;37.412;2022-10-16T22:58:50;100208.69;;;5.70;61.32
69035;BME280;56091;55.756;37.412;2022-10-16T23:03:50;100207.44;;;5.65;61.46
69035;BME280;56091;55.756;37.412;2022-10-16T23:08:53;100205.16;;;5.69;61.29
69035;BME280;56091;55.756;37.412;2022-10-16T23:13:54;100205.56;;;5.73;61.28
69035;BME280;56091;55.756;37.412;2022-10-16T23:18:55;100190.94;;;5.68;61.35
69035;BME280;56091;55.756;37.412;2022-10-16T23:23:57;100179.38;;;5.61;61.08
69035;BME280;56091;55.756;37.412;2022-10-16T23:28:58;100181.28;;;5.67;61.24
69035;BME280;56091;55.756;37.412;2022-10-16T23:33:59;100184.41;;;5.78;61.04
69035;BME280;56091;55.756;37.412;2022-10-16T23:39:01;100181.47;;;5.73;61.15
69035;BME280;56091;55.756;37.412;2022-10-16T23:44:04;100176.94;;;5.66;61.15
69035;BME280;56091;55.756;37.412;2022-10-16T23:49:05;100184.97;;;5.66;61.30
69035;BME280;56091;55.756;37.412;2022-10-16T23:54:06;100164.56;;;5.59;61.42
69035;BME280;56091;55.756;37.412;2022-10-16T23:59:06;100177.56;;;5.62;61.15
